EGTK/OXF METAR and TAF weather

Enter ICAO airport designator
Station Type Date Time Source
EGTK METAR 2018/10/16 20:20 UTC NOAA

EGTK 162020Z 21006KT 9999 BKN026 OVC030 13/11 Q1016


Station Type Date Time Source
EGTK Decoded METAR 2018/10/16 20:20 UTC NOAA

Station name not available
Oct 16, 2018 - 04:20 PM EDT / 2018.10.16 2020 UTC
Wind: from the SSW (210 degrees) at 7 MPH (6 KT):0
Visibility: greater than 7 mile(s):0
Sky conditions: overcast
Temperature: 55 F (13 C)
Dew Point: 51 F (11 C)
Relative Humidity: 87%
Pressure (altimeter): 30.00 in. Hg (1016 hPa)
ob: EGTK 162020Z 21006KT 9999 BKN026 OVC030 13/11 Q1016
cycle: 20

Station Type Date Time Source
EGTK TAF UTC NOAA

Error!


Example: see airport list